sensor_id;sensor_type;location;lat;lon;timestamp;temperature;humidity
41720;DHT22;27405;53.316;-6.294;2022-12-07T00:01:21;5.50;99.90
41720;DHT22;27405;53.316;-6.294;2022-12-07T00:03:48;5.40;99.90
41720;DHT22;27405;53.316;-6.294;2022-12-07T00:06:15;5.30;99.90
41720;DHT22;27405;53.316;-6.294;2022-12-07T00:08:42;5.20;99.90
41720;DHT22;27405;53.316;-6.294;2022-12-07T00:11:10;5.10;99.90
41720;DHT22;27405;53.316;-6.294;2022-12-07T00:13:38;5.10;99.90
41720;DHT22;27405;53.316;-6.294;2022-12-07T00:16:06;5.00;99.90
41720;DHT22;27405;53.316;-6.294;2022-12-07T00:18:33;4.90;99.90
41720;DHT22;27405;53.316;-6.294;2022-12-07T00:21:05;4.90;99.90
41720;DHT22;27405;53.316;-6.294;2022-12-07T00:23:31;4.90;99.90
41720;DHT22;27405;53.316;-6.294;2022-12-07T00:26:06;4.80;99.90
41720;DHT22;27405;53.316;-6.294;2022-12-07T00:28:32;4.80;99.90
41720;DHT22;27405;53.316;-6.294;2022-12-07T00:31:07;4.90;99.90
41720;DHT22;27405;53.316;-6.294;2022-12-07T00:33:34;4.80;99.90
41720;DHT22;27405;53.316;-6.294;2022-12-07T00:36:01;4.80;99.90
41720;DHT22;27405;53.316;-6.294;2022-12-07T00:38:30;4.80;99.90
41720;DHT22;27405;53.316;-6.294;2022-12-07T00:41:07;4.80;99.90
41720;DHT22;27405;53.316;-6.294;2022-12-07T00:43:34;4.80;99.90
41720;DHT22;27405;53.316;-6.294;2022-12-07T00:46:00;4.80;99.90
41720;DHT22;27405;53.316;-6.294;2022-12-07T00:48:25;4.70;99.90
41720;DHT22;27405;53.316;-6.294;2022-12-07T00:50:51;4.70;99.90
41720;DHT22;27405;53.316;-6.294;2022-12-07T00:53:17;4.70;99.90
41720;DHT22;27405;53.316;-6.294;2022-12-07T00:55:44;4.70;99.90
41720;DHT22;27405;53.316;-6.294;2022-12-07T00:58:10;4.70;99.90
41720;DHT22;27405;53.316;-6.294;2022-12-07T01:00:37;4.80;99.90
41720;DHT22;27405;53.316;-6.294;2022-12-07T01:03:04;4.80;99.90
41720;DHT22;27405;53.316;-6.294;2022-12-07T01:05:30;4.90;99.90
41720;DHT22;27405;53.316;-6.294;2022-12-07T01:07:56;4.90;99.90
41720;DHT22;27405;53.316;-6.294;2022-12-07T01:10:22;4.90;99.90
41720;DHT22;27405;53.316;-6.294;2022-12-07T01:12:47;5.00;99.90
41720;DHT22;27405;53.316;-6.294;2022-12-07T01:15:13;5.00;99.90
41720;DHT22;27405;53.316;-6.294;2022-12-07T01:17:39;5.00;99.90
41720;DHT22;27405;53.316;-6.294;2022-12-07T01:20:05;5.00;99.90
41720;DHT22;27405;53.316;-6.294;2022-12-07T01:22:31;5.00;99.90
41720;DHT22;27405;53.316;-6.294;2022-12-07T01:24:56;5.00;99.90
41720;DHT22;27405;53.316;-6.294;2022-12-07T01:27:22;5.00;99.90
41720;DHT22;27405;53.316;-6.294;2022-12-07T01:29:49;5.00;99.90
41720;DHT22;27405;53.316;-6.294;2022-12-07T01:32:16;5.00;99.90
41720;DHT22;27405;53.316;-6.294;2022-12-07T01:34:41;5.00;99.90
41720;DHT22;27405;53.316;-6.294;2022-12-07T01:37:07;5.00;99.90
41720;DHT22;27405;53.316;-6.294;2022-12-07T01:39:33;5.00;99.90
41720;DHT22;27405;53.316;-6.294;2022-12-07T01:41:58;5.00;99.90
41720;DHT22;27405;53.316;-6.294;2022-12-07T01:44:29;5.00;99.90
41720;DHT22;27405;53.316;-6.294;2022-12-07T01:46:59;5.00;99.90
41720;DHT22;27405;53.316;-6.294;2022-12-07T01:52:21;5.00;99.90
41720;DHT22;27405;53.316;-6.294;2022-12-07T01:54:49;5.00;99.90
41720;DHT22;27405;53.316;-6.294;2022-12-07T01:57:18;5.00;99.90
41720;DHT22;27405;53.316;-6.294;2022-12-07T01:59:49;4.90;99.90
41720;DHT22;27405;53.316;-6.294;2022-12-07T02:02:20;4.90;99.90
41720;DHT22;27405;53.316;-6.294;2022-12-07T02:04:49;4.90;99.90
41720;DHT22;27405;53.316;-6.294;2022-12-07T02:07:17;4.90;99.90
41720;DHT22;27405;53.316;-6.294;2022-12-07T02:09:43;4.90;99.90
41720;DHT22;27405;53.316;-6.294;2022-12-07T02:12:09;4.90;99.90
41720;DHT22;27405;53.316;-6.294;2022-12-07T02:14:35;4.90;99.90
41720;DHT22;27405;53.316;-6.294;2022-12-07T02:31:22;5.00;99.90
41720;DHT22;27405;53.316;-6.294;2022-12-07T02:34:18;5.00;99.90
41720;DHT22;27405;53.316;-6.294;2022-12-07T02:36:52;5.00;99.90
41720;DHT22;27405;53.316;-6.294;2022-12-07T02:39:44;5.00;99.90
41720;DHT22;27405;53.316;-6.294;2022-12-07T02:42:17;5.00;99.90
41720;DHT22;27405;53.316;-6.294;2022-12-07T02:44:45;5.00;99.90
41720;DHT22;27405;53.316;-6.294;2022-12-07T02:47:14;5.00;99.90
41720;DHT22;27405;53.316;-6.294;2022-12-07T02:49:44;5.00;99.90
41720;DHT22;27405;53.316;-6.294;2022-12-07T02:52:10;5.00;99.90
41720;DHT22;27405;53.316;-6.294;2022-12-07T02:54:35;4.90;99.90
41720;DHT22;27405;53.316;-6.294;2022-12-07T03:00:08;4.90;99.90
41720;DHT22;27405;53.316;-6.294;2022-12-07T03:08:15;4.80;99.90
41720;DHT22;27405;53.316;-6.294;2022-12-07T03:16:18;4.80;99.90
41720;DHT22;27405;53.316;-6.294;2022-12-07T03:21:33;4.90;99.90
41720;DHT22;27405;53.316;-6.294;2022-12-07T03:24:03;4.90;99.90
41720;DHT22;27405;53.316;-6.294;2022-12-07T03:26:34;4.90;99.90
41720;DHT22;27405;53.316;-6.294;2022-12-07T03:29:05;4.90;99.90
41720;DHT22;27405;53.316;-6.294;2022-12-07T03:31:35;4.90;99.90
41720;DHT22;27405;53.316;-6.294;2022-12-07T03:34:33;4.90;99.90
41720;DHT22;27405;53.316;-6.294;2022-12-07T03:37:07;4.90;99.90
41720;DHT22;27405;53.316;-6.294;2022-12-07T03:39:39;4.90;99.90
41720;DHT22;27405;53.316;-6.294;2022-12-07T03:42:07;4.90;99.90
41720;DHT22;27405;53.316;-6.294;2022-12-07T03:44:35;4.90;99.90
41720;DHT22;27405;53.316;-6.294;2022-12-07T03:47:16;4.80;99.90
41720;DHT22;27405;53.316;-6.294;2022-12-07T03:49:55;4.80;99.90
41720;DHT22;27405;53.316;-6.294;2022-12-07T03:52:41;4.70;99.90
41720;DHT22;27405;53.316;-6.294;2022-12-07T03:57:40;4.70;99.90
41720;DHT22;27405;53.316;-6.294;2022-12-07T04:00:07;4.80;99.90
41720;DHT22;27405;53.316;-6.294;2022-12-07T04:02:34;4.80;99.90
41720;DHT22;27405;53.316;-6.294;2022-12-07T04:05:01;4.80;99.90
41720;DHT22;27405;53.316;-6.294;2022-12-07T04:07:27;4.80;99.90
41720;DHT22;27405;53.316;-6.294;2022-12-07T04:09:53;4.80;99.90
41720;DHT22;27405;53.316;-6.294;2022-12-07T04:12:20;4.80;99.90
41720;DHT22;27405;53.316;-6.294;2022-12-07T04:14:47;4.80;99.90
41720;DHT22;27405;53.316;-6.294;2022-12-07T04:17:13;4.70;99.90
41720;DHT22;27405;53.316;-6.294;2022-12-07T04:19:38;4.70;99.90
41720;DHT22;27405;53.316;-6.294;2022-12-07T04:22:05;4.70;99.90
41720;DHT22;27405;53.316;-6.294;2022-12-07T04:24:31;4.70;99.90
41720;DHT22;27405;53.316;-6.294;2022-12-07T04:26:57;4.70;99.90
41720;DHT22;27405;53.316;-6.294;2022-12-07T04:29:23;4.70;99.90
41720;DHT22;27405;53.316;-6.294;2022-12-07T04:31:50;4.70;99.90
41720;DHT22;27405;53.316;-6.294;2022-12-07T04:34:16;4.60;99.90
41720;DHT22;27405;53.316;-6.294;2022-12-07T04:36:42;4.60;99.90
41720;DHT22;27405;53.316;-6.294;2022-12-07T04:39:19;4.60;99.90
41720;DHT22;27405;53.316;-6.294;2022-12-07T04:41:45;4.50;99.90
41720;DHT22;27405;53.316;-6.294;2022-12-07T04:44:12;4.50;99.90
41720;DHT22;27405;53.316;-6.294;2022-12-07T04:46:40;4.50;99.90
41720;DHT22;27405;53.316;-6.294;2022-12-07T04:49:06;4.40;99.90
41720;DHT22;27405;53.316;-6.294;2022-12-07T04:51:32;4.40;99.90
41720;DHT22;27405;53.316;-6.294;2022-12-07T04:53:57;4.40;99.90
41720;DHT22;27405;53.316;-6.294;2022-12-07T04:56:24;4.40;99.90
41720;DHT22;27405;53.316;-6.294;2022-12-07T04:58:52;4.40;99.90
41720;DHT22;27405;53.316;-6.294;2022-12-07T05:01:19;4.50;99.90
41720;DHT22;27405;53.316;-6.294;2022-12-07T05:03:45;4.50;99.90
41720;DHT22;27405;53.316;-6.294;2022-12-07T05:06:11;4.50;99.90
41720;DHT22;27405;53.316;-6.294;2022-12-07T05:08:37;4.50;99.90
41720;DHT22;27405;53.316;-6.294;2022-12-07T05:11:05;4.50;99.90
41720;DHT22;27405;53.316;-6.294;2022-12-07T05:13:31;4.40;99.90
41720;DHT22;27405;53.316;-6.294;2022-12-07T05:15:58;4.40;99.90
41720;DHT22;27405;53.316;-6.294;2022-12-07T05:18:24;4.40;99.90
41720;DHT22;27405;53.316;-6.294;2022-12-07T05:20:50;4.40;99.90
41720;DHT22;27405;53.316;-6.294;2022-12-07T05:23:16;4.50;99.90
41720;DHT22;27405;53.316;-6.294;2022-12-07T05:25:42;4.50;99.90
41720;DHT22;27405;53.316;-6.294;2022-12-07T05:28:08;4.50;99.90
41720;DHT22;27405;53.316;-6.294;2022-12-07T05:30:34;4.50;99.90
41720;DHT22;27405;53.316;-6.294;2022-12-07T05:32:59;4.50;99.90
41720;DHT22;27405;53.316;-6.294;2022-12-07T05:35:25;4.50;99.90
41720;DHT22;27405;53.316;-6.294;2022-12-07T05:37:51;4.50;99.90
41720;DHT22;27405;53.316;-6.294;2022-12-07T05:40:17;4.50;99.90
41720;DHT22;27405;53.316;-6.294;2022-12-07T05:42:45;4.50;99.90
41720;DHT22;27405;53.316;-6.294;2022-12-07T05:45:11;4.50;99.90
41720;DHT22;27405;53.316;-6.294;2022-12-07T05:47:37;4.50;99.90
41720;DHT22;27405;53.316;-6.294;2022-12-07T05:50:04;4.50;99.90
41720;DHT22;27405;53.316;-6.294;2022-12-07T05:52:30;4.60;99.90
41720;DHT22;27405;53.316;-6.294;2022-12-07T05:54:56;4.60;99.90
41720;DHT22;27405;53.316;-6.294;2022-12-07T05:57:22;4.60;99.90
41720;DHT22;27405;53.316;-6.294;2022-12-07T05:59:47;4.60;99.90
41720;DHT22;27405;53.316;-6.294;2022-12-07T06:02:15;4.60;99.90
41720;DHT22;27405;53.316;-6.294;2022-12-07T06:04:45;4.60;99.90
41720;DHT22;27405;53.316;-6.294;2022-12-07T06:07:13;4.60;99.90
41720;DHT22;27405;53.316;-6.294;2022-12-07T06:09:39;4.60;99.90
41720;DHT22;27405;53.316;-6.294;2022-12-07T06:12:05;4.50;99.90
41720;DHT22;27405;53.316;-6.294;2022-12-07T06:14:50;4.60;99.90
41720;DHT22;27405;53.316;-6.294;2022-12-07T06:17:16;4.50;99.90
41720;DHT22;27405;53.316;-6.294;2022-12-07T06:19:42;4.50;99.90
41720;DHT22;27405;53.316;-6.294;2022-12-07T06:22:09;4.50;99.90
41720;DHT22;27405;53.316;-6.294;2022-12-07T06:24:37;4.50;99.90
41720;DHT22;27405;53.316;-6.294;2022-12-07T06:27:03;4.50;99.90
41720;DHT22;27405;53.316;-6.294;2022-12-07T06:29:29;4.50;99.90
41720;DHT22;27405;53.316;-6.294;2022-12-07T06:31:55;4.50;99.90
41720;DHT22;27405;53.316;-6.294;2022-12-07T06:34:21;4.40;99.90
41720;DHT22;27405;53.316;-6.294;2022-12-07T06:36:51;4.40;99.90
41720;DHT22;27405;53.316;-6.294;2022-12-07T06:39:21;4.40;99.90
41720;DHT22;27405;53.316;-6.294;2022-12-07T06:41:47;4.40;99.90
41720;DHT22;27405;53.316;-6.294;2022-12-07T06:44:13;4.40;99.90
41720;DHT22;27405;53.316;-6.294;2022-12-07T06:46:39;4.40;99.90
41720;DHT22;27405;53.316;-6.294;2022-12-07T06:49:05;4.30;99.90
41720;DHT22;27405;53.316;-6.294;2022-12-07T06:51:32;4.30;99.90
41720;DHT22;27405;53.316;-6.294;2022-12-07T06:53:58;4.30;99.90
41720;DHT22;27405;53.316;-6.294;2022-12-07T06:56:23;4.30;99.90
41720;DHT22;27405;53.316;-6.294;2022-12-07T06:58:49;4.30;99.90
41720;DHT22;27405;53.316;-6.294;2022-12-07T07:01:17;4.20;99.90
41720;DHT22;27405;53.316;-6.294;2022-12-07T07:03:44;4.20;99.90
41720;DHT22;27405;53.316;-6.294;2022-12-07T07:06:10;4.20;99.90
41720;DHT22;27405;53.316;-6.294;2022-12-07T07:08:37;4.10;99.90
41720;DHT22;27405;53.316;-6.294;2022-12-07T07:11:04;4.10;99.90
41720;DHT22;27405;53.316;-6.294;2022-12-07T07:13:30;4.10;99.90
41720;DHT22;27405;53.316;-6.294;2022-12-07T07:15:56;4.00;99.90
41720;DHT22;27405;53.316;-6.294;2022-12-07T07:18:22;4.00;99.90
41720;DHT22;27405;53.316;-6.294;2022-12-07T07:20:47;3.90;99.90
41720;DHT22;27405;53.316;-6.294;2022-12-07T07:23:13;3.90;99.90
41720;DHT22;27405;53.316;-6.294;2022-12-07T07:25:39;3.90;99.90
41720;DHT22;27405;53.316;-6.294;2022-12-07T07:28:05;3.90;99.90
41720;DHT22;27405;53.316;-6.294;2022-12-07T07:30:31;3.90;99.90
41720;DHT22;27405;53.316;-6.294;2022-12-07T07:32:58;3.90;99.90
41720;DHT22;27405;53.316;-6.294;2022-12-07T07:35:24;3.80;99.90
41720;DHT22;27405;53.316;-6.294;2022-12-07T07:37:50;3.90;99.90
41720;DHT22;27405;53.316;-6.294;2022-12-07T07:40:16;3.80;99.90
41720;DHT22;27405;53.316;-6.294;2022-12-07T07:42:41;3.80;99.90
41720;DHT22;27405;53.316;-6.294;2022-12-07T07:45:08;3.80;99.90
41720;DHT22;27405;53.316;-6.294;2022-12-07T07:47:34;3.80;99.90
41720;DHT22;27405;53.316;-6.294;2022-12-07T07:49:59;3.90;99.90
41720;DHT22;27405;53.316;-6.294;2022-12-07T07:52:26;3.90;99.90
41720;DHT22;27405;53.316;-6.294;2022-12-07T07:54:51;3.90;99.90
41720;DHT22;27405;53.316;-6.294;2022-12-07T07:57:17;3.80;99.90
41720;DHT22;27405;53.316;-6.294;2022-12-07T07:59:43;3.90;99.90
41720;DHT22;27405;53.316;-6.294;2022-12-07T08:02:14;3.80;99.90
41720;DHT22;27405;53.316;-6.294;2022-12-07T08:04:40;3.80;99.90
41720;DHT22;27405;53.316;-6.294;2022-12-07T08:07:05;3.80;99.90
41720;DHT22;27405;53.316;-6.294;2022-12-07T08:09:31;3.80;99.90
41720;DHT22;27405;53.316;-6.294;2022-12-07T08:11:57;3.80;99.90
41720;DHT22;27405;53.316;-6.294;2022-12-07T08:14:24;3.80;99.90
41720;DHT22;27405;53.316;-6.294;2022-12-07T08:16:50;3.70;99.90
41720;DHT22;27405;53.316;-6.294;2022-12-07T08:19:17;3.80;99.90
41720;DHT22;27405;53.316;-6.294;2022-12-07T08:21:43;3.80;99.90
41720;DHT22;27405;53.316;-6.294;2022-12-07T08:24:10;3.70;99.90
41720;DHT22;27405;53.316;-6.294;2022-12-07T08:26:36;3.70;99.90
41720;DHT22;27405;53.316;-6.294;2022-12-07T08:29:02;3.70;99.90
41720;DHT22;27405;53.316;-6.294;2022-12-07T08:31:28;3.60;99.90
41720;DHT22;27405;53.316;-6.294;2022-12-07T08:33:55;3.60;99.90
41720;DHT22;27405;53.316;-6.294;2022-12-07T08:36:21;3.60;99.90
41720;DHT22;27405;53.316;-6.294;2022-12-07T08:38:48;3.60;99.90
41720;DHT22;27405;53.316;-6.294;2022-12-07T08:41:15;3.60;99.90
41720;DHT22;27405;53.316;-6.294;2022-12-07T08:43:42;3.60;99.90
41720;DHT22;27405;53.316;-6.294;2022-12-07T08:46:21;3.60;99.90
41720;DHT22;27405;53.316;-6.294;2022-12-07T08:49:02;3.60;99.90
41720;DHT22;27405;53.316;-6.294;2022-12-07T08:51:28;3.50;99.90
41720;DHT22;27405;53.316;-6.294;2022-12-07T08:53:55;3.40;99.90
41720;DHT22;27405;53.316;-6.294;2022-12-07T08:56:21;3.40;99.90
41720;DHT22;27405;53.316;-6.294;2022-12-07T08:58:49;3.40;99.90
41720;DHT22;27405;53.316;-6.294;2022-12-07T09:01:14;3.30;99.90
41720;DHT22;27405;53.316;-6.294;2022-12-07T09:03:40;3.30;99.90
41720;DHT22;27405;53.316;-6.294;2022-12-07T09:06:06;3.20;99.90
41720;DHT22;27405;53.316;-6.294;2022-12-07T09:08:36;3.20;99.90
41720;DHT22;27405;53.316;-6.294;2022-12-07T09:11:03;3.20;99.90
41720;DHT22;27405;53.316;-6.294;2022-12-07T09:13:29;3.20;99.90
41720;DHT22;27405;53.316;-6.294;2022-12-07T09:15:55;3.20;99.90
41720;DHT22;27405;53.316;-6.294;2022-12-07T09:18:21;3.20;99.90
41720;DHT22;27405;53.316;-6.294;2022-12-07T09:20:46;3.10;99.90
41720;DHT22;27405;53.316;-6.294;2022-12-07T09:23:12;3.10;99.90
41720;DHT22;27405;53.316;-6.294;2022-12-07T09:25:39;3.10;99.90
41720;DHT22;27405;53.316;-6.294;2022-12-07T09:28:04;3.10;99.90
41720;DHT22;27405;53.316;-6.294;2022-12-07T09:30:39;3.10;99.90
41720;DHT22;27405;53.316;-6.294;2022-12-07T09:33:10;3.10;99.90
41720;DHT22;27405;53.316;-6.294;2022-12-07T09:35:35;3.10;99.90
41720;DHT22;27405;53.316;-6.294;2022-12-07T09:38:01;3.10;99.90
41720;DHT22;27405;53.316;-6.294;2022-12-07T09:40:28;3.10;99.90
41720;DHT22;27405;53.316;-6.294;2022-12-07T09:43:10;3.10;99.90
41720;DHT22;27405;53.316;-6.294;2022-12-07T09:45:43;3.20;99.90
41720;DHT22;27405;53.316;-6.294;2022-12-07T09:48:34;3.20;99.90
41720;DHT22;27405;53.316;-6.294;2022-12-07T09:51:02;3.20;99.90
41720;DHT22;27405;53.316;-6.294;2022-12-07T09:53:46;3.10;99.90
41720;DHT22;27405;53.316;-6.294;2022-12-07T09:56:35;3.10;99.90
41720;DHT22;27405;53.316;-6.294;2022-12-07T09:59:03;3.10;99.90
41720;DHT22;27405;53.316;-6.294;2022-12-07T10:01:31;3.10;99.90
41720;DHT22;27405;53.316;-6.294;2022-12-07T10:04:20;3.10;99.90
41720;DHT22;27405;53.316;-6.294;2022-12-07T10:06:50;3.10;99.90
41720;DHT22;27405;53.316;-6.294;2022-12-07T10:09:21;3.10;99.90
41720;DHT22;27405;53.316;-6.294;2022-12-07T10:12:11;3.10;99.90
41720;DHT22;27405;53.316;-6.294;2022-12-07T10:15:02;3.10;99.90
41720;DHT22;27405;53.316;-6.294;2022-12-07T10:17:36;3.10;99.90
41720;DHT22;27405;53.316;-6.294;2022-12-07T10:20:25;3.20;99.90
41720;DHT22;27405;53.316;-6.294;2022-12-07T10:23:05;3.20;99.90
41720;DHT22;27405;53.316;-6.294;2022-12-07T10:25:39;3.20;99.90
41720;DHT22;27405;53.316;-6.294;2022-12-07T10:28:34;3.20;99.90
41720;DHT22;27405;53.316;-6.294;2022-12-07T10:31:03;3.30;99.90
41720;DHT22;27405;53.316;-6.294;2022-12-07T10:33:59;3.40;99.90
41720;DHT22;27405;53.316;-6.294;2022-12-07T10:36:36;3.50;99.90
41720;DHT22;27405;53.316;-6.294;2022-12-07T10:39:14;3.50;99.90
41720;DHT22;27405;53.316;-6.294;2022-12-07T10:42:00;3.50;99.90
41720;DHT22;27405;53.316;-6.294;2022-12-07T10:44:31;3.50;99.90
41720;DHT22;27405;53.316;-6.294;2022-12-07T11:08:09;3.80;99.90
41720;DHT22;27405;53.316;-6.294;2022-12-07T11:19:07;3.90;99.90
41720;DHT22;27405;53.316;-6.294;2022-12-07T11:21:58;3.90;99.90
41720;DHT22;27405;53.316;-6.294;2022-12-07T11:30:37;4.00;99.90
41720;DHT22;27405;53.316;-6.294;2022-12-07T11:38:46;4.10;99.90
41720;DHT22;27405;53.316;-6.294;2022-12-07T11:41:22;4.20;99.90
41720;DHT22;27405;53.316;-6.294;2022-12-07T11:44:18;4.20;99.90
41720;DHT22;27405;53.316;-6.294;2022-12-07T11:47:30;4.30;99.90
41720;DHT22;27405;53.316;-6.294;2022-12-07T11:55:21;4.30;99.90
41720;DHT22;27405;53.316;-6.294;2022-12-07T11:57:56;4.40;99.90
41720;DHT22;27405;53.316;-6.294;2022-12-07T12:00:23;4.40;99.90
41720;DHT22;27405;53.316;-6.294;2022-12-07T12:03:09;4.40;99.90
41720;DHT22;27405;53.316;-6.294;2022-12-07T12:05:37;4.50;99.90
41720;DHT22;27405;53.316;-6.294;2022-12-07T12:08:28;4.50;99.90
41720;DHT22;27405;53.316;-6.294;2022-12-07T12:22:37;4.60;99.90
41720;DHT22;27405;53.316;-6.294;2022-12-07T12:25:06;4.60;99.90
41720;DHT22;27405;53.316;-6.294;2022-12-07T12:27:37;4.60;99.90
41720;DHT22;27405;53.316;-6.294;2022-12-07T12:30:06;4.60;99.90
41720;DHT22;27405;53.316;-6.294;2022-12-07T12:32:39;4.60;99.90
41720;DHT22;27405;53.316;-6.294;2022-12-07T12:35:36;4.60;99.90
41720;DHT22;27405;53.316;-6.294;2022-12-07T12:38:27;4.70;99.90
41720;DHT22;27405;53.316;-6.294;2022-12-07T12:40:55;4.70;99.90
41720;DHT22;27405;53.316;-6.294;2022-12-07T12:43:45;4.70;99.90
41720;DHT22;27405;53.316;-6.294;2022-12-07T12:51:58;4.80;99.90
41720;DHT22;27405;53.316;-6.294;2022-12-07T12:54:29;4.80;99.90
41720;DHT22;27405;53.316;-6.294;2022-12-07T13:15:38;4.80;99.90
41720;DHT22;27405;53.316;-6.294;2022-12-07T13:28:43;4.90;99.90
41720;DHT22;27405;53.316;-6.294;2022-12-07T13:36:54;4.90;99.90
41720;DHT22;27405;53.316;-6.294;2022-12-07T13:39:32;4.90;99.90
41720;DHT22;27405;53.316;-6.294;2022-12-07T13:41:59;5.00;99.90
41720;DHT22;27405;53.316;-6.294;2022-12-07T13:44:39;5.00;99.90
41720;DHT22;27405;53.316;-6.294;2022-12-07T13:47:17;5.00;99.90
41720;DHT22;27405;53.316;-6.294;2022-12-07T13:49:50;5.00;99.90
41720;DHT22;27405;53.316;-6.294;2022-12-07T13:54:49;5.00;99.90
41720;DHT22;27405;53.316;-6.294;2022-12-07T13:57:16;5.10;99.90
41720;DHT22;27405;53.316;-6.294;2022-12-07T13:59:42;5.10;99.90
41720;DHT22;27405;53.316;-6.294;2022-12-07T14:02:27;5.10;99.90
41720;DHT22;27405;53.316;-6.294;2022-12-07T14:05:14;5.10;99.90
41720;DHT22;27405;53.316;-6.294;2022-12-07T14:08:00;5.10;99.90
41720;DHT22;27405;53.316;-6.294;2022-12-07T14:10:38;5.10;99.90
41720;DHT22;27405;53.316;-6.294;2022-12-07T14:13:27;5.10;99.90
41720;DHT22;27405;53.316;-6.294;2022-12-07T14:15:54;5.10;99.90
41720;DHT22;27405;53.316;-6.294;2022-12-07T14:18:46;5.20;99.90
41720;DHT22;27405;53.316;-6.294;2022-12-07T14:21:16;5.10;99.90
41720;DHT22;27405;53.316;-6.294;2022-12-07T14:23:43;5.10;99.90
41720;DHT22;27405;53.316;-6.294;2022-12-07T14:26:21;5.20;99.90
41720;DHT22;27405;53.316;-6.294;2022-12-07T14:28:47;5.20;99.90
41720;DHT22;27405;53.316;-6.294;2022-12-07T14:31:18;5.20;99.90
41720;DHT22;27405;53.316;-6.294;2022-12-07T14:33:45;5.20;99.90
41720;DHT22;27405;53.316;-6.294;2022-12-07T14:36:14;5.10;99.90
41720;DHT22;27405;53.316;-6.294;2022-12-07T14:38:40;5.10;99.90
41720;DHT22;27405;53.316;-6.294;2022-12-07T14:41:12;5.20;99.90
41720;DHT22;27405;53.316;-6.294;2022-12-07T14:43:58;5.20;99.90
41720;DHT22;27405;53.316;-6.294;2022-12-07T14:46:24;5.20;99.90
41720;DHT22;27405;53.316;-6.294;2022-12-07T14:48:49;5.20;99.90
41720;DHT22;27405;53.316;-6.294;2022-12-07T14:51:15;5.20;99.90
41720;DHT22;27405;53.316;-6.294;2022-12-07T14:53:47;5.20;99.90
41720;DHT22;27405;53.316;-6.294;2022-12-07T14:56:13;5.20;99.90
41720;DHT22;27405;53.316;-6.294;2022-12-07T14:58:40;5.30;99.90
41720;DHT22;27405;53.316;-6.294;2022-12-07T15:01:05;5.40;99.90
41720;DHT22;27405;53.316;-6.294;2022-12-07T15:03:31;5.40;99.90
41720;DHT22;27405;53.316;-6.294;2022-12-07T15:05:57;5.50;99.90
41720;DHT22;27405;53.316;-6.294;2022-12-07T15:08:23;5.50;99.90
41720;DHT22;27405;53.316;-6.294;2022-12-07T15:10:49;5.50;99.90
41720;DHT22;27405;53.316;-6.294;2022-12-07T15:13:15;5.60;99.90
41720;DHT22;27405;53.316;-6.294;2022-12-07T15:16:01;5.70;99.90
41720;DHT22;27405;53.316;-6.294;2022-12-07T15:18:26;5.70;99.90
41720;DHT22;27405;53.316;-6.294;2022-12-07T15:20:52;5.70;99.90
41720;DHT22;27405;53.316;-6.294;2022-12-07T15:23:18;5.70;99.90
41720;DHT22;27405;53.316;-6.294;2022-12-07T15:25:45;5.70;99.90
41720;DHT22;27405;53.316;-6.294;2022-12-07T15:28:11;5.70;99.90
41720;DHT22;27405;53.316;-6.294;2022-12-07T15:30:38;5.70;99.90
41720;DHT22;27405;53.316;-6.294;2022-12-07T15:33:04;5.60;99.90
41720;DHT22;27405;53.316;-6.294;2022-12-07T15:35:30;5.70;99.90
41720;DHT22;27405;53.316;-6.294;2022-12-07T15:37:55;5.70;99.90
41720;DHT22;27405;53.316;-6.294;2022-12-07T15:40:21;5.70;99.90
41720;DHT22;27405;53.316;-6.294;2022-12-07T15:42:47;5.70;99.90
41720;DHT22;27405;53.316;-6.294;2022-12-07T15:45:12;5.70;99.90
41720;DHT22;27405;53.316;-6.294;2022-12-07T15:47:40;5.70;99.90
41720;DHT22;27405;53.316;-6.294;2022-12-07T15:50:12;5.60;99.90
41720;DHT22;27405;53.316;-6.294;2022-12-07T15:52:38;5.60;99.90
41720;DHT22;27405;53.316;-6.294;2022-12-07T15:55:04;5.60;99.90
41720;DHT22;27405;53.316;-6.294;2022-12-07T15:57:35;5.60;99.90
41720;DHT22;27405;53.316;-6.294;2022-12-07T16:00:03;5.60;99.90
41720;DHT22;27405;53.316;-6.294;2022-12-07T16:02:29;5.50;99.90
41720;DHT22;27405;53.316;-6.294;2022-12-07T16:04:55;5.50;99.90
41720;DHT22;27405;53.316;-6.294;2022-12-07T16:07:21;5.40;99.90
41720;DHT22;27405;53.316;-6.294;2022-12-07T16:09:46;5.40;99.90
41720;DHT22;27405;53.316;-6.294;2022-12-07T16:12:13;5.30;99.90
41720;DHT22;27405;53.316;-6.294;2022-12-07T16:14:40;5.30;99.90
41720;DHT22;27405;53.316;-6.294;2022-12-07T16:17:07;5.20;99.90
41720;DHT22;27405;53.316;-6.294;2022-12-07T16:19:34;5.20;99.90
41720;DHT22;27405;53.316;-6.294;2022-12-07T16:22:00;5.10;99.90
41720;DHT22;27405;53.316;-6.294;2022-12-07T16:24:26;5.10;99.90
41720;DHT22;27405;53.316;-6.294;2022-12-07T16:26:52;5.10;99.90
41720;DHT22;27405;53.316;-6.294;2022-12-07T16:29:19;5.10;99.90
41720;DHT22;27405;53.316;-6.294;2022-12-07T16:31:46;5.10;99.90
41720;DHT22;27405;53.316;-6.294;2022-12-07T16:34:11;5.00;99.90
41720;DHT22;27405;53.316;-6.294;2022-12-07T16:36:37;5.00;99.90
41720;DHT22;27405;53.316;-6.294;2022-12-07T16:39:04;5.00;99.90
41720;DHT22;27405;53.316;-6.294;2022-12-07T16:41:30;5.00;99.90
41720;DHT22;27405;53.316;-6.294;2022-12-07T16:43:56;4.90;99.90
41720;DHT22;27405;53.316;-6.294;2022-12-07T16:46:22;4.90;99.90
41720;DHT22;27405;53.316;-6.294;2022-12-07T16:48:47;4.90;99.90
41720;DHT22;27405;53.316;-6.294;2022-12-07T16:51:14;4.80;99.90
41720;DHT22;27405;53.316;-6.294;2022-12-07T16:53:41;4.80;99.90
41720;DHT22;27405;53.316;-6.294;2022-12-07T16:56:15;4.80;99.90
41720;DHT22;27405;53.316;-6.294;2022-12-07T16:58:42;4.70;99.90
41720;DHT22;27405;53.316;-6.294;2022-12-07T17:01:13;4.70;99.90
41720;DHT22;27405;53.316;-6.294;2022-12-07T17:03:39;4.60;99.90
41720;DHT22;27405;53.316;-6.294;2022-12-07T17:06:17;4.60;99.90
41720;DHT22;27405;53.316;-6.294;2022-12-07T17:08:44;4.60;99.90
41720;DHT22;27405;53.316;-6.294;2022-12-07T17:11:21;4.50;99.90
41720;DHT22;27405;53.316;-6.294;2022-12-07T17:13:48;4.50;99.90
41720;DHT22;27405;53.316;-6.294;2022-12-07T17:16:32;4.50;99.90
41720;DHT22;27405;53.316;-6.294;2022-12-07T17:18:58;4.50;99.90
41720;DHT22;27405;53.316;-6.294;2022-12-07T17:21:24;4.50;99.90
41720;DHT22;27405;53.316;-6.294;2022-12-07T17:23:49;4.50;99.90
41720;DHT22;27405;53.316;-6.294;2022-12-07T17:26:22;4.50;99.90
41720;DHT22;27405;53.316;-6.294;2022-12-07T17:28:48;4.50;99.90
41720;DHT22;27405;53.316;-6.294;2022-12-07T17:31:18;4.40;99.90
41720;DHT22;27405;53.316;-6.294;2022-12-07T17:33:44;4.40;99.90
41720;DHT22;27405;53.316;-6.294;2022-12-07T17:36:15;4.40;99.90
41720;DHT22;27405;53.316;-6.294;2022-12-07T17:38:42;4.40;99.90
41720;DHT22;27405;53.316;-6.294;2022-12-07T17:41:10;4.30;99.90
41720;DHT22;27405;53.316;-6.294;2022-12-07T17:43:36;4.30;99.90
41720;DHT22;27405;53.316;-6.294;2022-12-07T17:46:06;4.20;99.90
41720;DHT22;27405;53.316;-6.294;2022-12-07T17:48:32;4.20;99.90
41720;DHT22;27405;53.316;-6.294;2022-12-07T17:51:01;4.10;99.90
41720;DHT22;27405;53.316;-6.294;2022-12-07T17:53:50;4.10;99.90
41720;DHT22;27405;53.316;-6.294;2022-12-07T17:56:17;4.00;99.90
41720;DHT22;27405;53.316;-6.294;2022-12-07T17:58:44;4.00;99.90
41720;DHT22;27405;53.316;-6.294;2022-12-07T18:01:10;4.00;99.90
41720;DHT22;27405;53.316;-6.294;2022-12-07T18:03:36;3.90;99.90